Langhorne, PA

3:46 PM EDT on July 07, 2015 (GMT -0400)
Highland Park | | Change Station
CLOSE
Current Station
Personal Weather Station
Location: Levittown, PA
Elevation: 108 ft
Nearby Weather Stations

Elev 108 ft 40.16 °N, 74.89 °W | Updated 39 seconds ago

Clear
Clear
91.1 °F
Feels Like 99 °F
N
5.1
Wind Variable Wind from NW
Gusts 6.7 mph

Today
High -- | Low -- °F
--% Chance of Precip.
Yesterday
High -- | Low -- °F
Precip. -- in
5:37 AM 8:31 PM
Waning Gibbous, 62% visible
Pressure 29.99 in
Visibility 10.0 miles
Clouds Mostly Cloudy 4300 ft
Mostly Cloudy 5000 ft
Mostly Cloudy 7000 ft
Heat Index 99 °F
Dew Point 72 °F
Humidity 54%
Rainfall 0.00 in
Snow Depth Not available.
UV 5 out of 12
Pollen 1.50 out of 12
Air Quality Not available.
Flu Activity Not available.
METAR KPNE 071854Z AUTO 21008KT 10SM BKN043 BKN050 BKN070 31/19 A2999 RMK AO2 SLP153 T03110194 TSNO

More Conditions Fewer Conditions

Pressure 29.99 in
Visibility 10.0 miles
Clouds Mostly Cloudy 4300 ft
Mostly Cloudy 5000 ft
Mostly Cloudy 7000 ft
Heat Index 99 °F
Dew Point 72 °F
Humidity 54%
Rainfall 0.00 in
Snow Depth Not available.
UV 5 out of 12
Pollen 1.50 out of 12
Air Quality Not available.
Flu Activity Not available.
METAR KPNE 071854Z AUTO 21008KT 10SM BKN043 BKN050 BKN070 31/19 A2999 RMK AO2 SLP153 T03110194 TSNO

More Conditions Fewer Conditions

Nowcast | as of 1:45 PM EDT on July 7, 2015

Scattered showers, with a few isolated thunderstorms, will continue to develop and move across the area through this afternoon. Some showers and thunderstorms with contain very heavy rainfall which will cause ponding on roadways and poor drainage areas.

×

10-Day Weather Forecast

×

Almanac

Astronomy

Jul. 07, 2015 Rise Set
Actual Time
Civil Twilight
Nautical Twilight
Astronomical Twilight
Moon
Length of Visible Light
Length of Day
Tomorrow will be .
, % of the Moon is Illuminated

Today's Extremes

State Highs State Lows

Community

WunderPhotos

Upload Photos

1,835,884 photos uploaded!

WunderBlogs® & News

Nearby

Air Quality

  Air Quality AQ Index Pollutant
Not available.

Snow Depth

Station Depth Elevation

Earthquake Activity

City Distance Mag. Time & Date
Minimum magnitude displayed is 2.5.

Coastal Water Temperatures

Place Temperature

Stations

Nearby Weather Stations

Station Location Temp. Windchill Dew Point Humidity Wind Precip. Elev Updated Type